createdAt,value
2018-03-25T00:02:13.497Z,100432.16
2018-03-25T00:04:39.246Z,100426.03
2018-03-25T00:07:04.990Z,100433.89
2018-03-25T00:09:30.745Z,100437.39
2018-03-25T00:11:56.479Z,100437.08
2018-03-25T00:14:22.226Z,100438.41
2018-03-25T00:16:47.969Z,100437.55
2018-03-25T00:19:13.724Z,100437.52
2018-03-25T00:21:39.478Z,100439.68
2018-03-25T00:24:05.371Z,100434.84
2018-03-25T00:26:31.119Z,100433.94
2018-03-25T00:28:56.865Z,100433.96
2018-03-25T00:31:22.614Z,100438.77
2018-03-25T00:33:48.359Z,100437.05
2018-03-25T00:36:14.098Z,100438.84
2018-03-25T00:38:39.818Z,100441.03
2018-03-25T00:41:05.554Z,100443.64
2018-03-25T00:43:31.309Z,100443.56
2018-03-25T00:45:57.050Z,100440.02
2018-03-25T00:48:22.795Z,100440.41
2018-03-25T00:50:48.547Z,100443.38
2018-03-25T00:53:14.282Z,100441.84
2018-03-25T00:55:40.024Z,100438.90
2018-03-25T00:58:05.995Z,100434.95
2018-03-25T01:00:31.767Z,100436.23
2018-03-25T01:02:57.511Z,100435.66
2018-03-25T01:05:23.268Z,100431.08
2018-03-25T01:07:49.003Z,100433.44
2018-03-25T01:10:14.756Z,100433.48
2018-03-25T01:12:40.492Z,100432.19
2018-03-25T01:15:06.264Z,100433.00
2018-03-25T01:17:32.024Z,100435.26
2018-03-25T01:19:58.068Z,100435.73
2018-03-25T01:22:24.133Z,100427.00
2018-03-25T01:24:50.723Z,100434.03
2018-03-25T01:27:16.746Z,100440.09
2018-03-25T01:29:42.754Z,100440.00
2018-03-25T01:32:08.802Z,100433.00
2018-03-25T01:34:34.565Z,100437.84
2018-03-25T01:37:00.570Z,100435.67
2018-03-25T01:39:26.343Z,100440.07
2018-03-25T01:41:52.094Z,100447.11
2018-03-25T01:44:17.835Z,100441.53
2018-03-25T01:46:43.578Z,100448.08
2018-03-25T01:49:09.318Z,100447.28
2018-03-25T01:51:35.058Z,100446.98
2018-03-25T01:54:00.798Z,100454.88
2018-03-25T01:56:26.532Z,100450.48
2018-03-25T01:58:52.640Z,100451.28
2018-03-25T02:01:18.403Z,100452.65
2018-03-25T02:03:44.141Z,100448.31
2018-03-25T02:06:09.869Z,100444.37
2018-03-25T02:08:35.729Z,100447.36
2018-03-25T02:11:01.723Z,100452.02
2018-03-25T02:13:28.856Z,100445.80
2018-03-25T02:15:54.639Z,100442.82
2018-03-25T02:18:20.402Z,100445.02
2018-03-25T02:20:46.239Z,100445.41
2018-03-25T02:23:11.978Z,100443.27
2018-03-25T02:25:37.727Z,100446.39
2018-03-25T02:28:03.466Z,100451.25
2018-03-25T02:30:29.203Z,100442.15
2018-03-25T02:32:54.944Z,100444.02
2018-03-25T02:35:20.698Z,100447.05
2018-03-25T02:37:46.444Z,100449.61
2018-03-25T02:40:12.186Z,100454.01
2018-03-25T02:42:37.934Z,100449.63
2018-03-25T02:45:03.688Z,100447.98
2018-03-25T02:47:29.441Z,100447.14
2018-03-25T02:49:55.184Z,100445.75
2018-03-25T02:52:20.927Z,100444.31
2018-03-25T02:54:46.664Z,100446.54
2018-03-25T02:57:12.409Z,100441.88
2018-03-25T02:59:38.182Z,100446.31
2018-03-25T03:02:03.907Z,100449.33
2018-03-25T03:04:29.651Z,100452.09
2018-03-25T03:06:55.393Z,100450.86
2018-03-25T03:09:21.154Z,100456.52
2018-03-25T03:11:46.878Z,100451.95
2018-03-25T03:14:12.647Z,100448.36
2018-03-25T03:16:38.400Z,100454.56
2018-03-25T03:19:10.227Z,100458.59
2018-03-25T03:21:35.918Z,100453.41
2018-03-25T03:24:01.672Z,100458.21
2018-03-25T03:26:27.426Z,100462.25
2018-03-25T03:28:53.166Z,100468.75
2018-03-25T03:31:18.907Z,100464.84
2018-03-25T03:33:44.667Z,100466.23
2018-03-25T03:36:10.422Z,100472.62
2018-03-25T03:38:36.176Z,100473.58
2018-03-25T03:41:01.902Z,100472.42
2018-03-25T03:43:27.635Z,100472.74
2018-03-25T03:45:53.377Z,100484.06
2018-03-25T03:48:19.117Z,100478.65
2018-03-25T03:50:44.868Z,100480.91
2018-03-25T03:53:10.598Z,100479.67
2018-03-25T03:55:36.336Z,100480.58
2018-03-25T03:58:02.082Z,100486.17
2018-03-25T04:00:27.827Z,100481.73
2018-03-25T04:02:53.566Z,100481.69
2018-03-25T04:05:19.310Z,100488.72
2018-03-25T04:07:45.055Z,100480.84
2018-03-25T04:10:10.813Z,100484.36
2018-03-25T04:12:36.569Z,100486.56
2018-03-25T04:15:02.326Z,100486.23
2018-03-25T04:17:28.062Z,100479.27
2018-03-25T04:19:53.797Z,100481.43
2018-03-25T04:22:19.531Z,100485.36
2018-03-25T04:24:45.281Z,100482.73
2018-03-25T04:27:11.022Z,100479.71
2018-03-25T04:29:36.771Z,100480.58
2018-03-25T04:32:02.528Z,100487.12
2018-03-25T04:34:28.282Z,100489.37
2018-03-25T04:36:54.026Z,100491.11
2018-03-25T04:39:19.776Z,100481.95
2018-03-25T04:41:45.522Z,100481.11
2018-03-25T04:44:11.258Z,100486.47
2018-03-25T04:46:36.994Z,100482.52
2018-03-25T04:49:02.750Z,100479.03
2018-03-25T04:51:28.492Z,100486.33
2018-03-25T04:53:54.242Z,100486.77
2018-03-25T04:56:19.989Z,100477.98
2018-03-25T04:58:45.722Z,100485.11
2018-03-25T05:01:11.457Z,100482.52
2018-03-25T05:03:37.178Z,100483.33
2018-03-25T05:06:02.940Z,100480.23
2018-03-25T05:08:28.678Z,100484.32
2018-03-25T05:10:54.430Z,100479.61
2018-03-25T05:13:20.150Z,100483.44
2018-03-25T05:15:45.898Z,100479.00
2018-03-25T05:18:11.645Z,100482.03
2018-03-25T05:20:37.394Z,100484.70
2018-03-25T05:23:03.129Z,100484.81
2018-03-25T05:25:28.881Z,100493.48
2018-03-25T05:27:54.620Z,100485.59
2018-03-25T05:30:20.350Z,100496.09
2018-03-25T05:32:46.090Z,100494.27
2018-03-25T05:35:11.847Z,100492.80
2018-03-25T05:37:37.575Z,100493.29
2018-03-25T05:40:03.313Z,100503.25
2018-03-25T05:42:29.060Z,100496.28
2018-03-25T05:44:54.804Z,100500.55
2018-03-25T05:47:20.551Z,100503.54
2018-03-25T05:49:46.295Z,100499.87
2018-03-25T05:52:12.038Z,100508.55
2018-03-25T05:54:37.778Z,100511.98
2018-03-25T05:57:03.519Z,100510.77
2018-03-25T05:59:29.258Z,100506.13
2018-03-25T06:01:55.005Z,100511.87
2018-03-25T06:04:20.741Z,100510.07
2018-03-25T06:06:46.491Z,100519.69
2018-03-25T06:09:12.218Z,100516.62
2018-03-25T06:11:37.983Z,100524.38
2018-03-25T06:14:03.741Z,100525.34
2018-03-25T06:16:29.478Z,100531.54
2018-03-25T06:18:55.254Z,100532.83
2018-03-25T06:21:20.998Z,100525.80
2018-03-25T06:23:46.738Z,100533.16
2018-03-25T06:26:12.469Z,100526.61
2018-03-25T06:28:38.214Z,100530.08
2018-03-25T06:31:03.962Z,100529.56
2018-03-25T06:33:29.699Z,100535.66
2018-03-25T06:35:55.491Z,100537.80
2018-03-25T06:38:21.243Z,100544.33
2018-03-25T06:40:46.994Z,100548.66
2018-03-25T06:43:12.746Z,100546.39
2018-03-25T06:45:38.490Z,100548.55
2018-03-25T06:48:04.251Z,100546.78
2018-03-25T06:50:29.998Z,100552.87
2018-03-25T06:52:55.757Z,100554.17
2018-03-25T06:55:21.490Z,100550.62
2018-03-25T06:57:47.226Z,100552.35
2018-03-25T07:00:12.971Z,100552.72
2018-03-25T07:02:38.718Z,100557.06
2018-03-25T07:05:04.467Z,100555.66
2018-03-25T07:07:30.189Z,100562.56
2018-03-25T07:09:55.931Z,100563.78
2018-03-25T07:12:21.662Z,100571.54
2018-03-25T07:14:47.411Z,100563.16
2018-03-25T07:17:13.149Z,100572.41
2018-03-25T07:19:38.890Z,100581.17
2018-03-25T07:22:04.624Z,100581.98
2018-03-25T07:24:30.359Z,100588.65
2018-03-25T07:26:56.086Z,100585.66
2018-03-25T07:29:21.818Z,100592.25
2018-03-25T07:31:47.549Z,100586.91
2018-03-25T07:34:13.285Z,100591.67
2018-03-25T07:36:39.047Z,100588.48
2018-03-25T07:39:04.792Z,100597.66
2018-03-25T07:41:30.513Z,100605.48
2018-03-25T07:43:56.243Z,100604.69
2018-03-25T07:46:21.974Z,100603.86
2018-03-25T07:48:47.727Z,100605.55
2018-03-25T07:51:13.491Z,100608.05
2018-03-25T07:53:39.250Z,100603.82
2018-03-25T07:56:04.984Z,100610.19
2018-03-25T07:58:30.726Z,100612.56
2018-03-25T08:00:56.459Z,100614.38
2018-03-25T08:03:22.191Z,100614.72
2018-03-25T08:05:47.934Z,100618.83
2018-03-25T08:08:13.658Z,100618.77
2018-03-25T08:10:39.409Z,100615.17
2018-03-25T08:13:05.243Z,100620.84
2018-03-25T08:15:30.997Z,100623.46
2018-03-25T08:17:56.747Z,100618.70
2018-03-25T08:20:22.491Z,100627.86
2018-03-25T08:22:48.226Z,100620.63
2018-03-25T08:25:13.982Z,100630.20
2018-03-25T08:27:39.730Z,100625.45
2018-03-25T08:30:05.481Z,100628.86
2018-03-25T08:32:31.206Z,100628.65
2018-03-25T08:34:56.945Z,100628.72
2018-03-25T08:37:22.690Z,100631.42
2018-03-25T08:39:48.451Z,100628.28
2018-03-25T08:42:14.211Z,100632.73
2018-03-25T08:44:39.946Z,100631.81
2018-03-25T08:47:05.685Z,100634.34
2018-03-25T08:49:31.447Z,100629.05
2018-03-25T08:51:57.213Z,100632.09
2018-03-25T08:54:22.967Z,100637.83
2018-03-25T08:56:48.729Z,100636.95
2018-03-25T08:59:14.474Z,100629.05
2018-03-25T09:01:40.238Z,100638.17
2018-03-25T09:04:05.959Z,100637.84
2018-03-25T09:06:31.705Z,100641.27
2018-03-25T09:08:57.442Z,100640.30
2018-03-25T09:11:23.190Z,100644.60
2018-03-25T09:13:48.917Z,100643.75
2018-03-25T09:16:14.660Z,100647.72
2018-03-25T09:18:40.403Z,100648.55
2018-03-25T09:21:06.163Z,100645.89
2018-03-25T09:23:31.958Z,100645.41
2018-03-25T09:25:57.705Z,100644.48
2018-03-25T09:28:23.449Z,100649.72
2018-03-25T09:30:49.229Z,100647.03
2018-03-25T09:33:14.973Z,100641.27
2018-03-25T09:35:40.726Z,100643.84
2018-03-25T09:38:06.457Z,100641.08
2018-03-25T09:40:32.444Z,100652.22
2018-03-25T09:42:58.198Z,100654.41
2018-03-25T09:45:24.828Z,100666.28
2018-03-25T09:47:50.583Z,100672.16
2018-03-25T09:50:16.327Z,100675.80
2018-03-25T09:52:42.114Z,100679.12
2018-03-25T09:55:07.807Z,100675.20
2018-03-25T09:57:33.542Z,100674.98
2018-03-25T09:59:59.275Z,100679.19
2018-03-25T10:02:26.077Z,100674.83
2018-03-25T10:04:51.891Z,100685.22
2018-03-25T10:07:17.574Z,100684.03
2018-03-25T10:09:43.314Z,100679.54
2018-03-25T10:12:09.062Z,100681.59
2018-03-25T10:14:34.796Z,100671.78
2018-03-25T10:17:00.538Z,100683.71
2018-03-25T10:19:26.277Z,100686.20
2018-03-25T10:21:52.027Z,100692.77
2018-03-25T10:24:17.826Z,100694.33
2018-03-25T10:26:44.412Z,100689.50
2018-03-25T10:29:10.170Z,100685.61
2018-03-25T10:31:35.901Z,100691.41
2018-03-25T10:34:01.683Z,100695.05
2018-03-25T10:36:27.445Z,100701.63
2018-03-25T10:38:53.186Z,100697.32
2018-03-25T10:41:18.926Z,100701.95
2018-03-25T10:43:44.749Z,100697.74
2018-03-25T10:46:10.674Z,100694.50
2018-03-25T10:48:36.441Z,100693.38
2018-03-25T10:51:02.711Z,100701.37
2018-03-25T10:53:28.477Z,100699.44
2018-03-25T10:55:54.222Z,100699.09
2018-03-25T10:58:19.997Z,100696.20
2018-03-25T11:00:45.753Z,100700.73
2018-03-25T11:03:11.509Z,100698.89
2018-03-25T11:05:44.338Z,100707.17
2018-03-25T11:08:10.087Z,100705.39
2018-03-25T11:10:35.859Z,100701.84
2018-03-25T11:13:01.766Z,100701.09
2018-03-25T11:15:27.802Z,100709.25
2018-03-25T11:17:53.581Z,100710.65
2018-03-25T11:20:19.333Z,100709.45
2018-03-25T11:22:45.800Z,100711.19
2018-03-25T11:25:12.757Z,100718.30
2018-03-25T11:27:39.624Z,100711.89
2018-03-25T11:30:06.337Z,100710.63
2018-03-25T11:32:32.084Z,100716.92
2018-03-25T11:34:57.840Z,100719.53
2018-03-25T11:37:23.575Z,100719.77
2018-03-25T11:39:49.333Z,100713.20
2018-03-25T11:42:15.079Z,100710.04
2018-03-25T11:44:40.843Z,100716.01
2018-03-25T11:47:06.590Z,100714.41
2018-03-25T11:49:32.361Z,100718.80
2018-03-25T11:51:58.106Z,100723.98
2018-03-25T11:54:23.868Z,100724.03
2018-03-25T11:56:49.607Z,100723.32
2018-03-25T11:59:15.366Z,100727.38
2018-03-25T12:01:41.122Z,100731.27
2018-03-25T12:04:06.880Z,100732.85
2018-03-25T12:06:32.629Z,100731.36
2018-03-25T12:08:58.394Z,100730.70
2018-03-25T12:11:24.134Z,100731.77
2018-03-25T12:13:49.903Z,100728.09
2018-03-25T12:16:15.649Z,100722.88
2018-03-25T12:18:41.398Z,100722.79
2018-03-25T12:21:07.138Z,100723.29
2018-03-25T12:23:32.878Z,100730.70
2018-03-25T12:25:58.628Z,100726.96
2018-03-25T12:28:24.361Z,100725.73
2018-03-25T12:30:50.115Z,100724.83
2018-03-25T12:33:15.853Z,100721.06
2018-03-25T12:35:41.604Z,100727.34
2018-03-25T12:38:07.344Z,100725.95
2018-03-25T12:40:33.102Z,100725.39
2018-03-25T12:42:58.840Z,100721.78
2018-03-25T12:45:24.607Z,100725.74
2018-03-25T12:47:50.363Z,100724.45
2018-03-25T12:50:16.134Z,100723.14
2018-03-25T12:52:41.877Z,100725.33
2018-03-25T12:55:07.638Z,100721.91
2018-03-25T12:57:33.383Z,100723.80
2018-03-25T12:59:59.126Z,100727.66
2018-03-25T13:02:25.326Z,100726.27
2018-03-25T13:04:51.086Z,100728.00
2018-03-25T13:07:16.828Z,100719.97
2018-03-25T13:09:42.579Z,100727.53
2018-03-25T13:12:08.315Z,100719.21
2018-03-25T13:14:34.059Z,100716.95
2018-03-25T13:19:32.450Z,100722.76
2018-03-25T13:21:58.272Z,100721.91
2018-03-25T13:24:25.076Z,100727.94
2018-03-25T13:26:50.896Z,100716.33
2018-03-25T13:29:16.642Z,100721.91
2018-03-25T13:31:42.402Z,100723.95
2018-03-25T13:34:08.145Z,100719.09
2018-03-25T13:36:33.898Z,100717.42
2018-03-25T13:38:59.655Z,100720.97
2018-03-25T13:41:25.400Z,100710.95
2018-03-25T13:43:51.308Z,100711.96
2018-03-25T13:46:17.058Z,100709.20
2018-03-25T13:48:42.806Z,100707.28
2018-03-25T13:51:08.544Z,100704.77
2018-03-25T13:53:34.269Z,100705.55
2018-03-25T13:56:00.012Z,100700.69
2018-03-25T13:58:25.779Z,100711.77
2018-03-25T14:00:51.609Z,100706.88
2018-03-25T14:03:17.316Z,100702.17
2018-03-25T14:05:43.079Z,100703.45
2018-03-25T14:08:08.898Z,100704.46
2018-03-25T14:10:34.632Z,100702.67
2018-03-25T14:13:00.427Z,100701.38
2018-03-25T14:15:26.286Z,100701.25
2018-03-25T14:17:52.026Z,100700.44
2018-03-25T14:20:17.748Z,100703.02
2018-03-25T14:22:43.479Z,100697.73
2018-03-25T14:25:09.213Z,100694.29
2018-03-25T14:27:34.954Z,100704.87
2018-03-25T14:30:00.734Z,100699.66
2018-03-25T14:32:26.420Z,100698.37
2018-03-25T14:34:52.158Z,100698.84
2018-03-25T14:37:17.961Z,100697.73
2018-03-25T14:39:43.694Z,100700.78
2018-03-25T14:42:09.425Z,100691.28
2018-03-25T14:44:35.154Z,100691.21
2018-03-25T14:47:00.924Z,100693.38
2018-03-25T14:49:26.679Z,100695.17
2018-03-25T14:51:52.418Z,100692.06
2018-03-25T14:54:18.146Z,100692.88
2018-03-25T14:56:43.890Z,100693.81
2018-03-25T14:59:09.622Z,100692.71
2018-03-25T15:01:35.386Z,100697.61
2018-03-25T15:04:01.137Z,100692.47
2018-03-25T15:06:26.866Z,100694.73
2018-03-25T15:08:52.614Z,100695.58
2018-03-25T15:11:18.360Z,100694.80
2018-03-25T15:13:44.156Z,100702.27
2018-03-25T15:16:09.893Z,100692.78
2018-03-25T15:18:35.634Z,100698.47
2018-03-25T15:21:01.380Z,100692.25
2018-03-25T15:23:27.123Z,100695.77
2018-03-25T15:25:52.931Z,100694.42
2018-03-25T15:28:18.637Z,100686.25
2018-03-25T15:30:44.365Z,100689.23
2018-03-25T15:33:10.154Z,100684.00
2018-03-25T15:35:35.898Z,100689.61
2018-03-25T15:38:01.655Z,100680.01
2018-03-25T15:40:27.390Z,100683.55
2018-03-25T15:42:53.133Z,100686.63
2018-03-25T15:45:18.868Z,100691.97
2018-03-25T15:47:44.610Z,100688.08
2018-03-25T15:50:10.370Z,100684.34
2018-03-25T15:52:36.109Z,100685.66
2018-03-25T15:55:01.860Z,100687.00
2018-03-25T15:57:27.596Z,100695.02
2018-03-25T15:59:53.317Z,100693.62
2018-03-25T16:02:19.033Z,100699.77
2018-03-25T16:04:44.774Z,100693.18
2018-03-25T16:07:10.508Z,100694.08
2018-03-25T16:09:36.240Z,100694.20
2018-03-25T16:12:01.989Z,100701.73
2018-03-25T16:14:27.722Z,100699.97
2018-03-25T16:16:53.466Z,100698.66
2018-03-25T16:19:19.201Z,100697.86
2018-03-25T16:21:44.942Z,100699.64
2018-03-25T16:24:10.687Z,100708.02
2018-03-25T16:26:36.450Z,100702.22
2018-03-25T16:29:02.214Z,100703.59
2018-03-25T16:31:27.946Z,100707.58
2018-03-25T16:33:53.699Z,100706.84
2018-03-25T16:36:19.449Z,100707.34
2018-03-25T16:38:45.197Z,100709.38
2018-03-25T16:41:10.946Z,100714.23
2018-03-25T16:43:36.674Z,100714.70
2018-03-25T16:46:02.412Z,100710.07
2018-03-25T16:48:28.147Z,100709.43
2018-03-25T16:50:53.896Z,100720.77
2018-03-25T16:53:19.634Z,100719.12
2018-03-25T16:55:45.375Z,100717.77
2018-03-25T16:58:11.106Z,100715.48
2018-03-25T17:00:36.833Z,100721.70
2018-03-25T17:03:02.586Z,100721.87
2018-03-25T17:05:28.330Z,100727.80
2018-03-25T17:07:54.052Z,100730.35
2018-03-25T17:10:19.809Z,100725.33
2018-03-25T17:12:45.555Z,100729.31
2018-03-25T17:15:11.310Z,100723.55
2018-03-25T17:17:37.035Z,100736.74
2018-03-25T17:20:02.768Z,100732.44
2018-03-25T17:22:28.502Z,100742.43
2018-03-25T17:24:54.266Z,100740.31
2018-03-25T17:27:20.007Z,100753.07
2018-03-25T17:29:45.732Z,100753.41
2018-03-25T17:32:11.474Z,100749.61
2018-03-25T17:34:37.205Z,100753.20
2018-03-25T17:37:02.943Z,100751.16
2018-03-25T17:39:28.665Z,100749.81
2018-03-25T17:41:54.852Z,100749.50
2018-03-25T17:44:20.589Z,100748.16
2018-03-25T17:46:46.322Z,100750.81
2018-03-25T17:49:12.077Z,100751.77
2018-03-25T17:51:37.813Z,100747.84
2018-03-25T17:54:03.545Z,100752.72
2018-03-25T17:56:29.290Z,100757.16
2018-03-25T17:58:55.007Z,100766.95
2018-03-25T18:01:20.766Z,100761.36
2018-03-25T18:03:46.497Z,100764.38
2018-03-25T18:06:12.233Z,100767.46
2018-03-25T18:08:37.978Z,100761.70
2018-03-25T18:11:03.729Z,100764.44
2018-03-25T18:13:29.487Z,100774.63
2018-03-25T18:15:55.247Z,100778.95
2018-03-25T18:18:21.009Z,100777.23
2018-03-25T18:20:56.293Z,100786.09
2018-03-25T18:23:12.477Z,100787.90
2018-03-25T18:25:38.211Z,100795.35
2018-03-25T18:28:03.954Z,100798.41
2018-03-25T18:30:29.705Z,100802.89
2018-03-25T18:32:55.464Z,100795.35
2018-03-25T18:35:21.206Z,100794.54
2018-03-25T18:37:46.974Z,100794.98
2018-03-25T18:40:12.719Z,100794.12
2018-03-25T18:42:38.460Z,100795.46
2018-03-25T18:45:04.200Z,100795.05
2018-03-25T18:47:29.946Z,100801.16
2018-03-25T18:49:55.690Z,100795.50
2018-03-25T18:52:21.450Z,100788.55
2018-03-25T18:54:47.176Z,100796.85
2018-03-25T18:57:12.902Z,100794.72
2018-03-25T18:59:38.662Z,100794.72
2018-03-25T19:02:04.404Z,100798.21
2018-03-25T19:04:30.146Z,100802.67
2018-03-25T19:06:55.878Z,100801.74
2018-03-25T19:09:21.657Z,100805.66
2018-03-25T19:11:47.381Z,100803.44
2018-03-25T19:14:13.118Z,100810.95
2018-03-25T19:16:38.853Z,100813.17
2018-03-25T19:19:04.604Z,100813.22
2018-03-25T19:21:30.337Z,100814.55
2018-03-25T19:23:56.082Z,100813.67
2018-03-25T19:26:21.810Z,100812.77
2018-03-25T19:28:47.597Z,100814.53
2018-03-25T19:31:13.338Z,100812.77
2018-03-25T19:33:39.082Z,100819.74
2018-03-25T19:36:04.803Z,100819.80
2018-03-25T19:38:30.528Z,100823.37
2018-03-25T19:40:56.270Z,100823.79
2018-03-25T19:43:21.998Z,100821.25
2018-03-25T19:45:47.728Z,100819.47
2018-03-25T19:48:13.476Z,100815.11
2018-03-25T19:50:39.222Z,100819.08
2018-03-25T19:53:04.965Z,100817.88
2018-03-25T19:55:30.701Z,100819.25
2018-03-25T19:57:56.439Z,100821.00
2018-03-25T20:00:22.200Z,100823.66
2018-03-25T20:02:47.958Z,100820.19
2018-03-25T20:05:13.698Z,100818.84
2018-03-25T20:07:39.426Z,100824.15
2018-03-25T20:10:05.184Z,100819.34
2018-03-25T20:12:30.924Z,100817.13
2018-03-25T20:14:56.668Z,100822.40
2018-03-25T20:17:22.406Z,100826.41
2018-03-25T20:19:48.157Z,100821.59
2018-03-25T20:22:13.948Z,100823.80
2018-03-25T20:24:39.655Z,100824.30
2018-03-25T20:27:05.429Z,100823.00
2018-03-25T20:29:31.167Z,100827.41
2018-03-25T20:31:56.906Z,100819.50
2018-03-25T20:34:22.627Z,100831.36
2018-03-25T20:36:48.398Z,100833.98
2018-03-25T20:39:14.151Z,100833.98
2018-03-25T20:41:39.899Z,100835.27
2018-03-25T20:44:05.641Z,100838.80
2018-03-25T20:46:31.379Z,100838.38
2018-03-25T20:48:57.146Z,100844.53
2018-03-25T20:51:22.890Z,100843.22
2018-03-25T20:53:48.634Z,100842.34
2018-03-25T20:56:14.402Z,100846.78
2018-03-25T20:58:40.136Z,100841.93
2018-03-25T21:01:05.875Z,100847.20
2018-03-25T21:03:31.605Z,100844.15
2018-03-25T21:05:57.341Z,100847.22
2018-03-25T21:08:23.074Z,100844.57
2018-03-25T21:10:48.819Z,100842.39
2018-03-25T21:13:14.647Z,100843.72
2018-03-25T21:15:40.378Z,100847.65
2018-03-25T21:18:06.126Z,100848.98
2018-03-25T21:20:31.861Z,100845.05
2018-03-25T21:22:57.597Z,100840.72
2018-03-25T21:25:23.326Z,100843.34
2018-03-25T21:27:49.074Z,100838.98
2018-03-25T21:30:14.821Z,100846.39
2018-03-25T21:32:40.557Z,100845.57
2018-03-25T21:35:06.290Z,100845.14
2018-03-25T21:37:32.027Z,100849.09
2018-03-25T21:39:57.759Z,100851.28
2018-03-25T21:42:23.498Z,100854.78
2018-03-25T21:44:49.219Z,100855.21
2018-03-25T21:47:14.984Z,100854.80
2018-03-25T21:49:40.722Z,100856.09
2018-03-25T21:52:06.463Z,100851.31
2018-03-25T21:54:32.195Z,100857.91
2018-03-25T21:56:57.924Z,100851.80
2018-03-25T21:59:23.674Z,100852.66
2018-03-25T22:01:49.413Z,100856.09
2018-03-25T22:04:15.178Z,100849.17
2018-03-25T22:06:40.917Z,100846.55
2018-03-25T22:09:06.662Z,100854.00
2018-03-25T22:11:32.380Z,100854.00
2018-03-25T22:13:58.233Z,100850.57
2018-03-25T22:16:23.957Z,100851.83
2018-03-25T22:18:58.870Z,100850.96
2018-03-25T22:21:24.608Z,100851.47
2018-03-25T22:23:50.341Z,100847.05
2018-03-25T22:26:16.066Z,100855.88
2018-03-25T22:28:41.809Z,100853.69
2018-03-25T22:31:07.550Z,100858.06
2018-03-25T22:33:33.300Z,100861.17
2018-03-25T22:35:59.030Z,100855.03
2018-03-25T22:38:24.765Z,100855.47
2018-03-25T22:40:50.498Z,100853.74
2018-03-25T22:43:16.231Z,100862.07
2018-03-25T22:45:41.973Z,100860.78
2018-03-25T22:48:07.714Z,100865.17
2018-03-25T22:50:33.450Z,100860.91
2018-03-25T22:52:59.174Z,100857.43
2018-03-25T22:55:24.905Z,100861.41
2018-03-25T22:57:50.643Z,100864.90
2018-03-25T23:00:16.378Z,100867.99
2018-03-25T23:02:42.123Z,100864.51
2018-03-25T23:05:07.867Z,100870.62
2018-03-25T23:07:33.607Z,100865.42
2018-03-25T23:09:59.374Z,100864.96
2018-03-25T23:12:25.112Z,100868.46
2018-03-25T23:14:50.865Z,100863.22
2018-03-25T23:17:16.600Z,100873.70
2018-03-25T23:19:42.334Z,100864.11
2018-03-25T23:22:08.078Z,100852.83
2018-03-25T23:24:33.818Z,100863.30
2018-03-25T23:26:59.546Z,100860.25
2018-03-25T23:29:25.276Z,100854.59
2018-03-25T23:31:51.034Z,100862.91
2018-03-25T23:34:16.754Z,100861.17
2018-03-25T23:36:42.501Z,100861.19
2018-03-25T23:39:08.231Z,100867.30
2018-03-25T23:41:33.970Z,100873.03
2018-03-25T23:43:59.878Z,100866.05
2018-03-25T23:46:25.632Z,100873.48
2018-03-25T23:48:51.372Z,100875.66
2018-03-25T23:51:17.125Z,100872.66
2018-03-25T23:53:42.870Z,100884.91
2018-03-25T23:56:08.622Z,100888.85
2018-03-25T23:58:34.582Z,100882.30
